Main page
METAR-TAF:

METAR-TAF

Airports :

Palacios Municipal Airport

Palacios, Texas, United States

latitude: 28-43-39N, longitude: 096-15-03W, elevation: 16 ft

Current weather observation

The report was made 33 minutes ago, at 13:16 UTC
Wind 15 mph from the Southeast
Temperature 82°F
Humidity 84%
Pressure 29.86 in. Hg
Visibility: 6 miles
Overcast at a height of 1300 ft
haze

METAR: KPSX 201316Z AUTO 14013KT 6SM HZ OVC013 28/25 A2986 RMK AO2 T02780250

Time: 08:49 (13:49 UTC)


TAF: missing

Weather observations and forecasts of more than 4000 airports (METAR and TAF reports).

The available stations are represented by yellow and red dots on the map.

Hover mouse over dot to see the name of the station.

Then click to see weather observations and forecasts.

To change the map : click on the green buttons with a black cross to zoom in, on the green button with a dash to zoom out, or on the green arrows for adjacent maps.


METAR-TAF: